createdAt,value
2023-03-25T00:01:37.060Z,10.99
2023-03-25T00:04:05.856Z,11.06
2023-03-25T00:06:35.816Z,11.09
2023-03-25T00:09:07.950Z,11.32
2023-03-25T00:11:38.535Z,11.23
2023-03-25T00:14:08.286Z,11.01
2023-03-25T00:16:39.216Z,11.22
2023-03-25T00:19:08.649Z,11.09
2023-03-25T00:21:39.164Z,11.09
2023-03-25T00:24:08.499Z,10.99
2023-03-25T00:26:42.112Z,10.73
2023-03-25T00:29:12.791Z,10.80
2023-03-25T00:31:43.337Z,10.58
2023-03-25T00:34:16.159Z,10.95
2023-03-25T00:36:43.138Z,10.98
2023-03-25T00:39:13.837Z,10.51
2023-03-25T00:41:44.756Z,10.96
2023-03-25T00:44:21.672Z,11.01
2023-03-25T00:46:50.561Z,11.16
2023-03-25T00:49:24.274Z,11.16
2023-03-25T00:51:53.084Z,11.06
2023-03-25T00:54:22.524Z,11.21
2023-03-25T00:56:52.179Z,11.20
2023-03-25T00:59:22.684Z,11.30
2023-03-25T01:01:55.631Z,10.96
2023-03-25T01:04:25.575Z,11.00
2023-03-25T01:06:55.949Z,11.16
2023-03-25T01:09:26.252Z,11.03
2023-03-25T01:11:56.119Z,10.88
2023-03-25T01:14:28.909Z,10.92
2023-03-25T01:16:58.324Z,10.98
2023-03-25T01:19:32.262Z,11.04
2023-03-25T01:22:02.658Z,10.92
2023-03-25T01:24:33.048Z,10.57
2023-03-25T01:27:03.770Z,10.86
2023-03-25T01:29:33.077Z,11.04
2023-03-25T01:32:03.819Z,10.80
2023-03-25T01:34:38.016Z,11.25
2023-03-25T01:37:09.322Z,11.28
2023-03-25T01:39:38.792Z,11.00
2023-03-25T01:42:11.578Z,10.96
2023-03-25T01:44:43.621Z,10.97
2023-03-25T01:47:11.233Z,11.03
2023-03-25T01:49:43.646Z,10.94
2023-03-25T01:52:16.598Z,10.87
2023-03-25T01:54:44.968Z,10.95
2023-03-25T01:57:18.786Z,11.14
2023-03-25T01:59:45.660Z,10.02
2023-03-25T02:02:18.060Z,10.80
2023-03-25T02:05:04.195Z,10.90
2023-03-25T02:07:32.953Z,10.94
2023-03-25T02:10:08.049Z,10.35
2023-03-25T02:12:34.255Z,11.01
2023-03-25T02:15:02.665Z,10.99
2023-03-25T02:17:47.314Z,10.49
2023-03-25T02:20:35.946Z,11.11
2023-03-25T02:23:21.263Z,11.17
2023-03-25T02:26:35.879Z,10.85
2023-03-25T02:29:18.435Z,11.15
2023-03-25T02:32:23.214Z,10.71
2023-03-25T02:35:05.304Z,10.86
2023-03-25T02:37:53.754Z,10.98
2023-03-25T02:40:22.824Z,10.82
2023-03-25T02:42:53.269Z,10.96
2023-03-25T02:45:28.568Z,10.68
2023-03-25T02:48:04.979Z,9.23
2023-03-25T02:50:38.305Z,11.02
2023-03-25T02:53:12.617Z,11.16
2023-03-25T02:55:44.371Z,10.80
2023-03-25T02:58:12.382Z,10.83
2023-03-25T03:00:43.343Z,11.08
2023-03-25T03:03:14.447Z,10.39
2023-03-25T03:05:46.207Z,11.10
2023-03-25T03:08:47.632Z,10.78
2023-03-25T03:11:24.160Z,10.75
2023-03-25T03:13:58.155Z,10.76
2023-03-25T03:17:04.769Z,10.73
2023-03-25T03:19:45.450Z,10.75
2023-03-25T03:22:42.783Z,10.79
2023-03-25T03:25:22.340Z,10.63
2023-03-25T03:27:56.605Z,10.50
2023-03-25T03:30:38.524Z,10.57
2023-03-25T03:33:27.285Z,10.64
2023-03-25T03:36:01.423Z,10.85
2023-03-25T03:38:38.028Z,10.27
2023-03-25T03:41:10.922Z,10.52
2023-03-25T03:43:50.769Z,10.53
2023-03-25T03:46:32.977Z,10.54
2023-03-25T03:49:16.573Z,10.36
2023-03-25T03:51:51.129Z,10.18
2023-03-25T03:54:32.948Z,9.79
2023-03-25T03:57:15.988Z,10.12
2023-03-25T04:00:03.457Z,10.24
2023-03-25T04:02:37.776Z,8.91
2023-03-25T04:05:06.736Z,10.11
2023-03-25T04:07:40.864Z,10.13
2023-03-25T04:10:21.693Z,10.31
2023-03-25T04:12:51.036Z,10.02
2023-03-25T04:15:17.490Z,10.04
2023-03-25T04:17:48.252Z,10.23
2023-03-25T04:20:22.948Z,9.67
2023-03-25T04:22:51.096Z,10.30
2023-03-25T04:25:27.012Z,10.09
2023-03-25T04:27:58.307Z,10.30
2023-03-25T04:30:26.339Z,10.39
2023-03-25T04:32:52.470Z,10.66
2023-03-25T04:35:25.151Z,10.29
2023-03-25T04:37:56.643Z,10.31
2023-03-25T04:40:24.967Z,9.94
2023-03-25T04:42:52.493Z,10.36
2023-03-25T04:45:24.864Z,10.29
2023-03-25T04:47:53.381Z,10.39
2023-03-25T04:50:25.172Z,10.41
2023-03-25T04:52:59.667Z,10.55
2023-03-25T04:55:29.286Z,10.15
2023-03-25T04:57:55.521Z,10.05
2023-03-25T05:00:23.403Z,9.86
2023-03-25T05:02:55.003Z,9.68
2023-03-25T05:05:23.259Z,9.88
2023-03-25T05:07:52.542Z,9.45
2023-03-25T05:10:20.780Z,9.05
2023-03-25T05:12:58.283Z,9.37
2023-03-25T05:15:24.395Z,9.42
2023-03-25T05:17:50.466Z,9.32
2023-03-25T05:20:26.498Z,9.23
2023-03-25T05:22:52.877Z,9.36
2023-03-25T05:25:21.913Z,9.02
2023-03-25T05:27:48.320Z,9.45
2023-03-25T05:30:22.186Z,9.38
2023-03-25T05:32:50.373Z,9.20
2023-03-25T05:35:22.492Z,9.40
2023-03-25T05:37:50.838Z,8.75
2023-03-25T05:40:21.022Z,0.06
2023-03-25T05:42:53.989Z,9.25
2023-03-25T05:45:22.633Z,9.55
2023-03-25T05:47:56.206Z,9.19
2023-03-25T05:50:28.122Z,9.37
2023-03-25T05:52:56.739Z,9.37
2023-03-25T05:55:26.356Z,9.32
2023-03-25T05:57:56.417Z,9.21
2023-03-25T06:00:26.473Z,9.72
2023-03-25T06:02:58.527Z,9.66
2023-03-25T06:05:33.168Z,9.49
2023-03-25T06:08:03.644Z,9.36
2023-03-25T06:10:33.727Z,9.41
2023-03-25T06:13:03.688Z,9.42
2023-03-25T06:15:38.353Z,9.45
2023-03-25T06:18:04.699Z,8.67
2023-03-25T06:20:35.278Z,9.35
2023-03-25T06:23:09.242Z,9.61
2023-03-25T06:25:39.412Z,9.58
2023-03-25T06:28:10.482Z,9.38
2023-03-25T06:30:47.089Z,8.93
2023-03-25T06:33:14.669Z,8.87
2023-03-25T06:36:00.768Z,9.36
2023-03-25T06:38:33.448Z,9.53
2023-03-25T06:40:59.499Z,9.35
2023-03-25T06:43:27.328Z,9.32
2023-03-25T06:45:53.627Z,9.45
2023-03-25T06:48:26.427Z,9.43
2023-03-25T06:50:54.111Z,9.84
2023-03-25T06:53:24.694Z,10.12
2023-03-25T06:55:57.168Z,10.11
2023-03-25T06:58:33.888Z,10.27
2023-03-25T07:01:05.242Z,9.89
2023-03-25T07:03:31.507Z,10.25
2023-03-25T07:06:03.737Z,10.25
2023-03-25T07:08:33.380Z,7.93
2023-03-25T07:11:06.717Z,10.36
2023-03-25T07:13:42.711Z,10.15
2023-03-25T07:16:11.197Z,10.14
2023-03-25T07:18:41.588Z,9.34
2023-03-25T07:21:12.347Z,10.14
2023-03-25T07:23:42.883Z,10.05
2023-03-25T07:26:13.548Z,8.72
2023-03-25T07:28:44.633Z,10.30
2023-03-25T07:31:18.185Z,9.75
2023-03-25T07:33:48.502Z,9.65
2023-03-25T07:36:18.605Z,10.23
2023-03-25T07:38:48.411Z,10.45
2023-03-25T07:41:18.320Z,10.53
2023-03-25T07:43:48.416Z,10.17
2023-03-25T07:46:18.698Z,10.36
2023-03-25T07:48:52.628Z,10.03
2023-03-25T07:51:22.833Z,10.52
2023-03-25T07:53:52.763Z,10.50
2023-03-25T07:56:22.963Z,10.42
2023-03-25T07:58:52.736Z,10.36
2023-03-25T08:01:22.972Z,10.68
2023-03-25T08:03:52.857Z,10.70
2023-03-25T08:06:28.985Z,10.55
2023-03-25T08:08:59.046Z,10.37
2023-03-25T08:11:28.980Z,10.73
2023-03-25T08:13:59.607Z,9.87
2023-03-25T08:16:29.933Z,10.57
2023-03-25T08:19:00.175Z,10.48
2023-03-25T08:21:30.310Z,10.63
2023-03-25T08:24:04.485Z,10.71
2023-03-25T08:26:34.405Z,6.71
2023-03-25T08:29:04.319Z,10.40
2023-03-25T08:31:37.890Z,10.81
2023-03-25T08:34:04.767Z,10.75
2023-03-25T08:36:38.535Z,10.74
2023-03-25T08:39:10.789Z,11.06
2023-03-25T08:41:40.580Z,10.91
2023-03-25T08:44:10.936Z,10.80
2023-03-25T08:46:40.646Z,10.82
2023-03-25T08:49:11.067Z,10.77
2023-03-25T08:51:41.733Z,10.31
2023-03-25T08:54:11.862Z,10.94
2023-03-25T08:56:41.225Z,10.89
2023-03-25T08:59:13.897Z,10.90
2023-03-25T09:01:44.727Z,10.71
2023-03-25T09:04:15.397Z,10.97
2023-03-25T09:06:47.981Z,10.61
2023-03-25T09:09:16.453Z,11.15
2023-03-25T09:11:46.414Z,11.12
2023-03-25T09:14:17.301Z,11.32
2023-03-25T09:16:50.540Z,11.48
2023-03-25T09:19:20.690Z,11.32
2023-03-25T09:21:50.561Z,11.23
2023-03-25T09:24:21.923Z,11.12
2023-03-25T09:26:50.900Z,11.19
2023-03-25T09:29:20.916Z,10.92
2023-03-25T09:31:50.921Z,11.36
2023-03-25T09:34:27.190Z,11.36
2023-03-25T09:36:56.142Z,11.22
2023-03-25T09:39:26.732Z,11.45
2023-03-25T09:42:36.044Z,11.16
2023-03-25T09:45:12.602Z,11.21
2023-03-25T09:47:58.898Z,11.12
2023-03-25T09:50:32.228Z,10.91
2023-03-25T09:53:45.150Z,11.92
2023-03-25T09:56:24.323Z,12.40
2023-03-25T09:58:59.936Z,11.62
2023-03-25T10:01:42.945Z,11.59
2023-03-25T10:04:42.184Z,11.58
2023-03-25T10:07:11.026Z,11.59
2023-03-25T10:10:21.634Z,11.60
2023-03-25T10:12:50.745Z,11.87
2023-03-25T10:15:39.728Z,11.92
2023-03-25T10:18:33.408Z,11.84
2023-03-25T10:21:18.893Z,11.69
2023-03-25T10:23:54.295Z,11.86
2023-03-25T10:26:25.047Z,12.27
2023-03-25T10:29:05.495Z,12.14
2023-03-25T10:31:49.659Z,12.14
2023-03-25T10:34:18.598Z,12.21
2023-03-25T10:36:49.081Z,12.59
2023-03-25T10:39:24.244Z,12.35
2023-03-25T10:41:59.624Z,12.41
2023-03-25T10:44:26.662Z,12.44
2023-03-25T10:47:06.064Z,12.76
2023-03-25T10:49:33.297Z,12.60
2023-03-25T10:52:00.464Z,12.62
2023-03-25T10:54:29.137Z,11.87
2023-03-25T10:57:03.213Z,12.62
2023-03-25T10:59:40.904Z,13.04
2023-03-25T11:02:13.944Z,11.71
2023-03-25T11:04:49.037Z,13.24
2023-03-25T11:07:22.953Z,12.70
2023-03-25T11:09:51.048Z,3.66
2023-03-25T11:12:33.298Z,14.01
2023-03-25T11:15:13.504Z,13.75
2023-03-25T11:17:40.118Z,13.10
2023-03-25T11:20:18.765Z,12.85
2023-03-25T11:22:51.443Z,12.92
2023-03-25T11:25:41.141Z,12.72
2023-03-25T11:28:39.154Z,12.57
2023-03-25T11:31:20.582Z,12.59
2023-03-25T11:34:04.081Z,13.06
2023-03-25T11:36:39.529Z,13.23
2023-03-25T11:39:22.828Z,12.71
2023-03-25T11:41:49.230Z,12.69
2023-03-25T11:44:26.013Z,12.67
2023-03-25T11:46:58.156Z,12.36
2023-03-25T11:49:25.521Z,12.88
2023-03-25T11:52:00.941Z,12.83
2023-03-25T11:54:27.443Z,12.51
2023-03-25T11:56:54.199Z,12.66
2023-03-25T11:59:35.695Z,13.05
2023-03-25T12:02:23.435Z,13.49
2023-03-25T12:05:02.369Z,13.78
2023-03-25T12:07:48.085Z,14.21
2023-03-25T12:10:39.057Z,13.88
2023-03-25T12:13:34.459Z,13.92
2023-03-25T12:16:17.529Z,13.64
2023-03-25T12:19:00.295Z,12.69
2023-03-25T12:21:41.269Z,13.39
2023-03-25T12:24:20.908Z,13.82
2023-03-25T12:27:02.098Z,14.61
2023-03-25T12:29:56.051Z,14.99
2023-03-25T12:32:25.905Z,14.99
2023-03-25T12:35:19.886Z,12.84
2023-03-25T12:38:05.905Z,14.89
2023-03-25T12:40:52.622Z,14.02
2023-03-25T12:43:29.820Z,14.07
2023-03-25T12:46:07.463Z,13.92
2023-03-25T12:49:05.280Z,13.92
2023-03-25T12:52:08.927Z,13.88
2023-03-25T12:54:54.107Z,14.37
2023-03-25T12:57:44.789Z,14.11
2023-03-25T13:00:24.829Z,14.43
2023-03-25T13:03:19.072Z,14.38
2023-03-25T13:06:25.482Z,14.31
2023-03-25T13:09:03.766Z,14.40
2023-03-25T13:11:37.446Z,14.50
2023-03-25T13:14:10.202Z,14.83
2023-03-25T13:16:42.769Z,14.77
2023-03-25T13:19:13.012Z,15.36
2023-03-25T13:21:50.145Z,14.72
2023-03-25T13:24:30.052Z,14.77
2023-03-25T13:26:56.597Z,14.38
2023-03-25T13:29:28.959Z,14.24
2023-03-25T13:32:10.847Z,13.63
2023-03-25T13:34:46.707Z,13.60
2023-03-25T13:37:28.904Z,11.89
2023-03-25T13:40:12.355Z,13.15
2023-03-25T13:42:59.201Z,13.16
2023-03-25T13:45:51.520Z,13.17
2023-03-25T13:48:28.853Z,13.51
2023-03-25T13:51:03.434Z,13.22
2023-03-25T13:53:54.489Z,13.31
2023-03-25T13:56:34.101Z,13.44
2023-03-25T13:59:07.967Z,13.00
2023-03-25T14:02:01.395Z,12.94
2023-03-25T14:04:46.751Z,13.25
2023-03-25T14:07:47.023Z,13.00
2023-03-25T14:10:55.081Z,13.05
2023-03-25T14:13:29.502Z,13.09
2023-03-25T14:16:05.583Z,13.09
2023-03-25T14:18:48.573Z,12.55
2023-03-25T14:21:42.050Z,13.12
2023-03-25T14:24:32.359Z,13.17
2023-03-25T14:27:12.782Z,10.29
2023-03-25T14:29:54.105Z,13.14
2023-03-25T14:32:20.109Z,12.76
2023-03-25T14:34:50.916Z,12.68
2023-03-25T14:37:25.157Z,12.86
2023-03-25T14:39:57.629Z,12.89
2023-03-25T14:42:41.641Z,12.98
2023-03-25T14:45:31.320Z,13.18
2023-03-25T14:48:19.347Z,13.40
2023-03-25T14:51:13.173Z,13.94
2023-03-25T14:53:56.103Z,13.79
2023-03-25T14:56:41.084Z,13.82
2023-03-25T14:59:15.380Z,12.39
2023-03-25T15:01:43.348Z,13.01
2023-03-25T15:04:22.274Z,12.98
2023-03-25T15:06:52.598Z,13.09
2023-03-25T15:09:19.705Z,13.24
2023-03-25T15:12:00.085Z,12.91
2023-03-25T15:14:35.616Z,13.28
2023-03-25T15:17:08.228Z,12.73
2023-03-25T15:20:02.280Z,12.98
2023-03-25T15:22:32.715Z,13.11
2023-03-25T15:25:12.696Z,12.85
2023-03-25T15:28:01.685Z,12.05
2023-03-25T15:30:35.047Z,12.95
2023-03-25T15:33:31.114Z,13.03
2023-03-25T15:36:20.968Z,12.39
2023-03-25T15:39:16.604Z,12.91
2023-03-25T15:41:59.765Z,12.68
2023-03-25T15:45:08.021Z,12.36
2023-03-25T15:47:47.697Z,11.65
2023-03-25T15:50:25.867Z,11.70
2023-03-25T15:53:19.961Z,11.75
2023-03-25T15:55:58.931Z,11.54
2023-03-25T15:59:02.563Z,11.69
2023-03-25T16:01:42.122Z,11.60
2023-03-25T16:04:33.104Z,11.53
2023-03-25T16:07:12.330Z,10.31
2023-03-25T16:09:47.971Z,11.12
2023-03-25T16:12:24.774Z,11.22
2023-03-25T16:14:55.149Z,11.00
2023-03-25T16:17:31.792Z,11.19
2023-03-25T16:19:58.927Z,11.15
2023-03-25T16:22:33.265Z,11.19
2023-03-25T16:25:13.841Z,11.43
2023-03-25T16:27:45.411Z,11.07
2023-03-25T16:30:18.929Z,10.68
2023-03-25T16:32:50.437Z,11.28
2023-03-25T16:35:24.277Z,11.18
2023-03-25T16:37:59.018Z,11.20
2023-03-25T16:40:48.912Z,11.15
2023-03-25T16:43:25.378Z,10.79
2023-03-25T16:45:58.806Z,11.22
2023-03-25T16:48:33.378Z,10.19
2023-03-25T16:51:20.897Z,11.13
2023-03-25T16:53:55.137Z,10.85
2023-03-25T16:56:32.529Z,10.67
2023-03-25T16:59:07.505Z,11.24
2023-03-25T17:01:38.798Z,11.19
2023-03-25T17:04:17.470Z,11.30
2023-03-25T17:06:46.661Z,9.42
2023-03-25T17:09:17.011Z,11.11
2023-03-25T17:11:44.511Z,11.43
2023-03-25T17:14:18.308Z,10.78
2023-03-25T17:16:45.534Z,10.80
2023-03-25T17:19:13.911Z,11.25
2023-03-25T17:22:00.844Z,11.35
2023-03-25T17:24:26.960Z,11.15
2023-03-25T17:27:04.706Z,11.11
2023-03-25T17:29:48.788Z,10.90
2023-03-25T17:32:17.820Z,9.79
2023-03-25T17:34:45.590Z,10.96
2023-03-25T17:37:24.369Z,10.92
2023-03-25T17:39:55.001Z,10.56
2023-03-25T17:42:25.353Z,10.74
2023-03-25T17:44:52.332Z,10.50
2023-03-25T17:47:19.691Z,10.50
2023-03-25T17:49:46.563Z,10.59
2023-03-25T17:52:12.624Z,10.67
2023-03-25T17:54:47.064Z,9.22
2023-03-25T17:57:19.614Z,10.69
2023-03-25T17:59:47.657Z,10.75
2023-03-25T18:02:15.475Z,10.65
2023-03-25T18:04:46.281Z,10.78
2023-03-25T18:07:20.449Z,10.56
2023-03-25T18:09:47.018Z,10.63
2023-03-25T18:12:13.066Z,10.58
2023-03-25T18:14:44.177Z,10.76
2023-03-25T18:17:12.318Z,9.47
2023-03-25T18:19:38.722Z,10.53
2023-03-25T18:22:18.913Z,10.44
2023-03-25T18:24:51.089Z,10.60
2023-03-25T18:27:17.196Z,10.54
2023-03-25T18:29:43.292Z,10.73
2023-03-25T18:32:14.673Z,10.63
2023-03-25T18:34:44.112Z,10.54
2023-03-25T18:37:11.279Z,8.97
2023-03-25T18:39:37.709Z,10.70
2023-03-25T18:42:08.870Z,10.59
2023-03-25T18:44:35.121Z,10.21
2023-03-25T18:47:01.198Z,10.39
2023-03-25T18:49:27.299Z,10.44
2023-03-25T18:52:02.264Z,10.58
2023-03-25T18:54:31.491Z,9.91
2023-03-25T18:57:02.027Z,10.32
2023-03-25T18:59:31.706Z,10.29
2023-03-25T19:02:01.841Z,10.46
2023-03-25T19:04:34.749Z,10.20
2023-03-25T19:07:04.000Z,10.24
2023-03-25T19:09:36.991Z,10.30
2023-03-25T19:12:07.543Z,10.28
2023-03-25T19:14:37.896Z,10.59
2023-03-25T19:17:10.209Z,10.01
2023-03-25T19:19:41.020Z,10.26
2023-03-25T19:22:16.268Z,10.46
2023-03-25T19:24:42.574Z,10.49
2023-03-25T19:27:10.784Z,10.59
2023-03-25T19:29:41.286Z,10.45
2023-03-25T19:32:12.581Z,10.49
2023-03-25T19:34:47.035Z,10.53
2023-03-25T19:37:13.185Z,10.48
2023-03-25T19:39:42.548Z,10.61
2023-03-25T19:42:12.836Z,10.33
2023-03-25T19:44:47.185Z,10.38
2023-03-25T19:47:16.714Z,10.27
2023-03-25T19:49:48.325Z,9.95
2023-03-25T19:52:17.719Z,10.25
2023-03-25T19:54:48.254Z,10.26
2023-03-25T19:57:18.573Z,10.23
2023-03-25T19:59:48.536Z,10.05
2023-03-25T20:02:22.222Z,10.37
2023-03-25T20:04:52.813Z,10.43
2023-03-25T20:07:25.501Z,10.24
2023-03-25T20:09:53.026Z,10.44
2023-03-25T20:12:23.265Z,10.27
2023-03-25T20:14:53.429Z,10.76
2023-03-25T20:17:24.103Z,9.75
2023-03-25T20:19:59.788Z,10.59
2023-03-25T20:22:31.012Z,10.80
2023-03-25T20:25:00.182Z,11.01
2023-03-25T20:27:30.535Z,11.07
2023-03-25T20:30:00.720Z,10.49
2023-03-25T20:32:40.686Z,10.07
2023-03-25T20:35:09.688Z,10.76
2023-03-25T20:37:39.243Z,10.63
2023-03-25T20:40:10.294Z,10.93
2023-03-25T20:42:41.638Z,8.78
2023-03-25T20:45:09.241Z,10.30
2023-03-25T20:47:36.429Z,10.50
2023-03-25T20:50:07.638Z,9.75
2023-03-25T20:52:37.404Z,10.48
2023-03-25T20:55:10.769Z,10.50
2023-03-25T20:57:40.681Z,9.83
2023-03-25T21:00:17.403Z,10.16
2023-03-25T21:02:44.340Z,10.11
2023-03-25T21:05:11.054Z,9.82
2023-03-25T21:07:42.088Z,10.10
2023-03-25T21:10:13.123Z,9.30
2023-03-25T21:12:49.692Z,10.03
2023-03-25T21:15:19.509Z,10.37
2023-03-25T21:17:49.607Z,10.50
2023-03-25T21:20:23.113Z,10.38
2023-03-25T21:22:52.151Z,9.69
2023-03-25T21:25:22.375Z,9.91
2023-03-25T21:27:51.900Z,9.24
2023-03-25T21:30:24.918Z,10.16
2023-03-25T21:32:55.470Z,8.79
2023-03-25T21:35:28.194Z,9.56
2023-03-25T21:37:54.905Z,9.27
2023-03-25T21:40:25.749Z,7.64
2023-03-25T21:43:05.584Z,9.17
2023-03-25T21:45:33.647Z,7.81
2023-03-25T21:48:04.503Z,9.54
2023-03-25T21:50:35.624Z,9.48
2023-03-25T21:53:03.227Z,9.88
2023-03-25T21:55:35.809Z,9.98
2023-03-25T21:58:06.321Z,9.92
2023-03-25T22:00:36.156Z,9.94
2023-03-25T22:03:11.142Z,9.71
2023-03-25T22:05:38.457Z,10.10
2023-03-25T22:08:09.106Z,9.80
2023-03-25T22:10:40.378Z,9.90
2023-03-25T22:13:14.761Z,9.68
2023-03-25T22:15:45.580Z,9.55
2023-03-25T22:18:16.049Z,9.18
2023-03-25T22:20:47.621Z,9.40
2023-03-25T22:23:17.278Z,8.16
2023-03-25T22:25:47.772Z,7.48
2023-03-25T22:28:18.027Z,9.34
2023-03-25T22:30:51.518Z,9.59
2023-03-25T22:33:21.876Z,9.33
2023-03-25T22:35:52.381Z,9.23
2023-03-25T22:38:21.958Z,9.17
2023-03-25T22:40:52.448Z,9.08
2023-03-25T22:43:22.569Z,9.14
2023-03-25T22:45:52.988Z,9.08
2023-03-25T22:48:27.797Z,9.18
2023-03-25T22:50:56.985Z,9.33
2023-03-25T22:53:27.205Z,9.15
2023-03-25T22:55:57.381Z,7.97
2023-03-25T22:58:28.707Z,9.26
2023-03-25T23:00:59.056Z,9.26
2023-03-25T23:03:27.963Z,9.20
2023-03-25T23:06:00.607Z,8.15
2023-03-25T23:08:30.979Z,9.11
2023-03-25T23:11:16.838Z,9.26
2023-03-25T23:13:57.698Z,9.14
2023-03-25T23:16:26.826Z,9.09
2023-03-25T23:18:53.255Z,8.01
2023-03-25T23:21:30.396Z,9.09
2023-03-25T23:24:02.560Z,8.41
2023-03-25T23:26:38.186Z,8.81
2023-03-25T23:29:08.013Z,8.98
2023-03-25T23:31:41.433Z,9.05
2023-03-25T23:34:13.710Z,9.04
2023-03-25T23:36:40.058Z,7.25
2023-03-25T23:39:14.867Z,9.03
2023-03-25T23:41:45.242Z,9.04
2023-03-25T23:44:12.395Z,9.10
2023-03-25T23:46:38.642Z,9.40
2023-03-25T23:49:10.011Z,8.59
2023-03-25T23:51:40.614Z,8.62
2023-03-25T23:54:10.804Z,8.91
2023-03-25T23:56:45.621Z,8.90
2023-03-25T23:59:16.328Z,7.62
